Sankoumaru 31 — JD2200 — position and weather

sailwx.info

Track history (hours):
 
Tides and Currents Weather Stations Pressure Air Temp Water Temp Dewpoint Dewpoint Depression Visibility Wind Speed Wind Dir Waves Ship Positions

Sankoumaru 31

Last reported at 2016-Dec-09 10:08 UTC. Time now 2016-Dec-11 00:19 UTC.
Position N 35°02' E 139°44'.

Length 75 m; draft 5 m.

Type: Cargo ship. MMSI: 431501842.

Date/timePositionNaut miles runAvg speedWind from/ knotsBaromVisibWave heightAir tempDewpointWater temp
2016-Dec-09 10:08N 35°02' E 139°44'711.2
2016-Dec-09 09:30N 35°09' E 139°45'1111.1
2016-Dec-09 08:33N 35°19' E 139°43'1010.2
2016-Dec-09 07:33N 35°28' E 139°49'1410.7
2016-Dec-09 06:13N 35°40' E 139°59'1 0.0
2016-Dec-08 03:28N 35°41' E 139°58'1 0.2
2016-Dec-07 22:33N 35°41' E 139°57'3 3.3
2016-Dec-07 21:32N 35°37' E 139°59'0 0.0
2016-Dec-07 20:11N 35°37' E 139°59'0 0.0
2016-Dec-07 19:32N 35°37' E 139°59'0 0.0
2016-Dec-07 18:32N 35°37' E 139°59'0 0.0
2016-Dec-07 17:32N 35°37' E 139°59'0 0.0
2016-Dec-07 16:32N 35°37' E 139°59'0 0.0
2016-Dec-07 15:29N 35°37' E 139°59'0 0.0
2016-Dec-07 14:32N 35°37' E 139°59'2 0.5
2016-Dec-07 10:33N 35°36' E 139°57'1211.7
2016-Dec-07 09:33N 35°26' E 139°49'  
2016-Dec-03 01:21N 34°14' E 132°32'126 2.7
2016-Dec-01 02:20N 34°37' E 135°01'1013.1
2016-Dec-01 01:33N 34°37' E 135°13'3 3.1
2016-Dec-01 00:33N 34°41' E 135°13'0 0.0
2016-Nov-30 23:33N 34°41' E 135°13'2 1.6
2016-Nov-30 22:33N 34°40' E 135°15'6 5.9
2016-Nov-30 21:33N 34°36' E 135°10'1211.1
2016-Nov-30 20:26N 34°37' E 134°55'  
Track history (hours):
 
Tides and Currents Weather Stations Pressure Air Temp Water Temp Dewpoint Dewpoint Depression Visibility Wind Speed Wind Dir Waves Ship Positions

Sankoumaru 31

Last reported at 2016-Dec-09 10:08 UTC. Time now 2016-Dec-11 00:19 UTC.
Position N 35°02' E 139°44'.

Length 75 m; draft 5 m.

Type: Cargo ship. MMSI: 431501842.

Date/timePositionNaut miles runAvg speedWind from/ knotsBaromVisibWave heightAir tempDewpointWater temp
2016-Dec-09 10:08N 35°02' E 139°44'711.2
2016-Dec-09 09:30N 35°09' E 139°45'1111.1
2016-Dec-09 08:33N 35°19' E 139°43'1010.2
2016-Dec-09 07:33N 35°28' E 139°49'1410.7
2016-Dec-09 06:13N 35°40' E 139°59'1 0.0
2016-Dec-08 03:28N 35°41' E 139°58'1 0.2
2016-Dec-07 22:33N 35°41' E 139°57'3 3.3
2016-Dec-07 21:32N 35°37' E 139°59'0 0.0
2016-Dec-07 20:11N 35°37' E 139°59'0 0.0
2016-Dec-07 19:32N 35°37' E 139°59'0 0.0
2016-Dec-07 18:32N 35°37' E 139°59'0 0.0
2016-Dec-07 17:32N 35°37' E 139°59'0 0.0
2016-Dec-07 16:32N 35°37' E 139°59'0 0.0
2016-Dec-07 15:29N 35°37' E 139°59'0 0.0
2016-Dec-07 14:32N 35°37' E 139°59'2 0.5
2016-Dec-07 10:33N 35°36' E 139°57'1211.7
2016-Dec-07 09:33N 35°26' E 139°49'  
2016-Dec-03 01:21N 34°14' E 132°32'126 2.7
2016-Dec-01 02:20N 34°37' E 135°01'1013.1
2016-Dec-01 01:33N 34°37' E 135°13'3 3.1
2016-Dec-01 00:33N 34°41' E 135°13'0 0.0
2016-Nov-30 23:33N 34°41' E 135°13'2 1.6
2016-Nov-30 22:33N 34°40' E 135°15'6 5.9
2016-Nov-30 21:33N 34°36' E 135°10'1211.1
2016-Nov-30 20:26N 34°37' E 134°55'  

Dump ship's entire track history